Time;durP1;ratioP1;P1;durP2;ratioP2;P2;SDS_P1;SDS_P2;PMS_P1;PMS_P2;Temp;Humidity;BMP_temperature;BMP_pressure;BME280_temperature;BME280_humidity;BME280_pressure;Samples;Min_cycle;Max_cycle;Signal;HPM_P1;HPM_P2
2022/05/29 00:00:52;;;;;;;10.05;3.63;;;9.60;99.90;;;;;;5115023;28;20047;-66
2022/05/29 00:03:17;;;;;;;9.38;2.65;;;9.60;99.90;;;;;;5114939;28;20483;-65
2022/05/29 00:05:44;;;;;;;11.05;3.30;;;9.60;99.90;;;;;;5115055;28;20043;-65
2022/05/29 00:08:14;;;;;;;8.43;2.95;;;9.60;99.90;;;;;;5098908;28;20529;-66
2022/05/29 00:10:41;;;;;;;9.95;2.75;;;9.60;99.90;;;;;;5113033;28;20086;-66
2022/05/29 00:13:07;;;;;;;10.55;3.05;;;9.60;99.90;;;;;;5084545;28;20056;-66
2022/05/29 00:15:33;;;;;;;7.55;2.75;;;9.60;99.90;;;;;;5127848;27;20054;-66
2022/05/29 00:17:59;;;;;;;9.75;3.65;;;9.60;99.90;;;;;;5093644;28;20481;-66
2022/05/29 00:20:24;;;;;;;6.82;3.30;;;9.60;99.90;;;;;;5106791;28;20058;-65
2022/05/29 00:22:51;;;;;;;9.30;3.08;;;9.70;99.90;;;;;;5144336;27;20104;-65
2022/05/29 00:25:16;;;;;;;12.60;3.10;;;9.70;99.90;;;;;;5145833;27;20059;-66
2022/05/29 00:27:42;;;;;;;13.75;4.00;;;9.70;99.90;;;;;;5132292;27;20075;-65
2022/05/29 00:30:11;;;;;;;7.20;3.50;;;9.70;99.90;;;;;;5075906;28;20048;-66
2022/05/29 00:32:36;;;;;;;9.30;3.20;;;9.70;99.90;;;;;;5080035;28;20175;-65
2022/05/29 00:35:02;;;;;;;14.40;3.40;;;9.60;99.90;;;;;;5145031;27;20139;-65
2022/05/29 00:37:34;;;;;;;10.23;3.45;;;9.60;99.90;;;;;;5114677;28;20043;-65
2022/05/29 00:40:00;;;;;;;7.15;3.58;;;9.60;99.90;;;;;;5104647;27;20142;-65
2022/05/29 00:42:25;;;;;;;8.55;3.33;;;9.60;99.90;;;;;;5098842;28;20521;-66
2022/05/29 00:44:51;;;;;;;10.90;3.22;;;9.60;99.90;;;;;;5110476;28;20093;-66
2022/05/29 00:47:20;;;;;;;10.00;3.40;;;9.60;99.90;;;;;;5109932;28;20048;-65
2022/05/29 00:49:48;;;;;;;7.97;3.55;;;9.60;99.90;;;;;;5111813;28;20044;-66
2022/05/29 00:52:28;;;;;;;10.05;3.47;;;9.60;99.90;;;;;;5106585;28;20047;-65
2022/05/29 00:55:05;;;;;;;12.10;3.50;;;9.60;99.90;;;;;;5112398;28;20056;-65
2022/05/29 00:57:34;;;;;;;12.60;3.67;;;9.60;99.90;;;;;;5125215;27;20513;-66
2022/05/29 01:00:08;;;;;;;11.57;3.28;;;9.50;99.90;;;;;;5113833;28;20041;-65
2022/05/29 01:02:34;;;;;;;9.23;3.38;;;9.50;99.90;;;;;;5109764;28;20054;-65
2022/05/29 01:05:01;;;;;;;11.93;3.55;;;9.50;99.90;;;;;;5113775;28;20047;-66
2022/05/29 01:07:29;;;;;;;11.80;3.78;;;9.40;99.90;;;;;;5113436;28;20130;-66
2022/05/29 01:09:55;;;;;;;11.20;3.58;;;9.40;99.90;;;;;;5099299;28;20048;-65
2022/05/29 01:12:42;;;;;;;11.82;3.88;;;9.40;99.90;;;;;;5111069;28;20092;-65
2022/05/29 01:15:22;;;;;;;13.68;4.15;;;9.30;99.90;;;;;;5109695;28;20387;-65
2022/05/29 01:18:00;;;;;;;9.80;3.50;;;9.30;99.90;;;;;;5111551;28;20047;-66
2022/05/29 01:20:41;;;;;;;9.50;4.20;;;9.30;99.90;;;;;;5094174;28;20067;-66
2022/05/29 01:23:26;;;;;;;8.63;4.50;;;9.30;99.90;;;;;;5093614;28;20397;-66
2022/05/29 01:26:20;;;;;;;10.10;3.60;;;9.30;99.90;;;;;;5091706;28;20085;-66
2022/05/29 01:28:51;;;;;;;11.80;3.75;;;9.30;99.90;;;;;;5144808;27;20171;-65
2022/05/29 01:31:39;;;;;;;10.77;3.35;;;9.30;99.90;;;;;;5112979;28;20055;-65
2022/05/29 01:34:28;;;;;;;13.68;4.05;;;9.30;99.90;;;;;;5102215;28;20052;-66
2022/05/29 01:37:24;;;;;;;13.48;3.47;;;9.30;99.90;;;;;;5091682;28;20369;-65
2022/05/29 01:39:53;;;;;;;14.07;3.65;;;9.30;99.90;;;;;;5090690;28;20104;-65
2022/05/29 01:42:28;;;;;;;14.35;3.72;;;9.40;99.90;;;;;;5111600;28;20055;-66
2022/05/29 01:45:28;;;;;;;10.05;3.95;;;9.40;99.90;;;;;;5113631;28;20047;-66
2022/05/29 01:48:06;;;;;;;10.05;3.70;;;9.40;99.90;;;;;;5071925;28;20063;-65
2022/05/29 01:50:44;;;;;;;14.00;3.58;;;9.40;99.90;;;;;;5073981;28;20099;-66
2022/05/29 01:53:18;;;;;;;10.00;3.53;;;9.40;99.90;;;;;;5074343;28;20456;-65
2022/05/29 01:55:51;;;;;;;7.97;3.05;;;9.40;99.90;;;;;;5111098;28;20495;-65
2022/05/29 01:58:23;;;;;;;8.40;3.50;;;9.50;99.90;;;;;;5113552;28;20052;-65
2022/05/29 02:00:51;;;;;;;11.17;3.73;;;9.50;99.90;;;;;;5112654;28;20135;-66
2022/05/29 02:03:24;;;;;;;15.88;4.30;;;9.50;99.90;;;;;;5107088;28;20044;-65
2022/05/29 02:06:00;;;;;;;10.07;3.55;;;9.50;99.90;;;;;;5105534;28;20048;-65
2022/05/29 02:08:48;;;;;;;10.45;3.83;;;9.50;99.90;;;;;;5104537;28;20062;-65
2022/05/29 02:11:20;;;;;;;8.60;3.42;;;9.40;99.90;;;;;;5079060;28;20056;-65
2022/05/29 02:14:00;;;;;;;9.07;3.45;;;9.40;99.90;;;;;;5113276;28;20064;-65
2022/05/29 02:16:32;;;;;;;9.80;3.40;;;9.40;99.90;;;;;;5112738;28;20573;-66
2022/05/29 02:19:08;;;;;;;9.13;3.53;;;9.40;99.90;;;;;;5115945;28;20133;-66
2022/05/29 02:21:49;;;;;;;7.38;3.47;;;9.40;99.90;;;;;;5114596;28;20061;-65
2022/05/29 02:24:18;;;;;;;11.43;3.35;;;9.40;99.90;;;;;;5098886;28;20059;-65
2022/05/29 02:27:03;;;;;;;10.05;3.38;;;9.30;99.90;;;;;;5104503;28;20055;-66
2022/05/29 02:29:29;;;;;;;17.02;4.68;;;9.30;99.90;;;;;;5129153;27;20546;-66
2022/05/29 02:32:20;;;;;;;10.05;4.40;;;9.40;99.90;;;;;;5112165;28;20043;-66
2022/05/29 02:35:11;;;;;;;10.48;4.15;;;9.30;99.90;;;;;;5115290;28;20044;-66
2022/05/29 02:37:49;;;;;;;9.88;3.45;;;9.30;99.90;;;;;;5116576;28;20052;-65
2022/05/29 02:40:15;;;;;;;9.40;4.32;;;9.30;99.90;;;;;;5114178;28;20043;-66
2022/05/29 02:42:45;;;;;;;11.65;4.15;;;9.30;99.90;;;;;;5103246;28;20581;-65
2022/05/29 02:45:11;;;;;;;14.57;4.10;;;9.30;99.90;;;;;;5095964;28;20052;-66
2022/05/29 02:47:45;;;;;;;8.60;3.63;;;9.30;99.90;;;;;;5075336;28;20135;-66
2022/05/29 02:50:31;;;;;;;9.10;3.13;;;9.30;99.90;;;;;;5115151;28;20059;-66
2022/05/29 02:53:00;;;;;;;11.80;3.97;;;9.30;99.90;;;;;;5115834;28;20495;-65
2022/05/29 02:55:26;;;;;;;12.88;3.58;;;9.30;99.90;;;;;;5116471;28;20055;-66
2022/05/29 02:58:01;;;;;;;11.93;3.53;;;9.30;99.90;;;;;;5113079;28;20047;-65
2022/05/29 03:00:35;;;;;;;13.65;3.78;;;9.30;99.90;;;;;;5109511;28;20126;-65
2022/05/29 03:03:10;;;;;;;7.80;3.30;;;9.30;99.90;;;;;;5108964;28;20051;-65
2022/05/29 03:06:07;;;;;;;10.85;3.72;;;9.30;99.90;;;;;;5116319;28;20058;-66
2022/05/29 03:08:46;;;;;;;11.32;4.00;;;9.30;99.90;;;;;;5143148;27;20052;-66
2022/05/29 03:11:18;;;;;;;12.20;3.70;;;9.30;99.90;;;;;;5075362;28;20064;-65
2022/05/29 03:13:52;;;;;;;;;;;9.30;99.90;;;;;;5124473;27;20052;-66
2022/05/29 03:16:54;;;;;;;12.38;3.80;;;9.30;99.90;;;;;;5097958;28;19919;-65
2022/05/29 03:20:02;;;;;;;8.07;3.75;;;9.30;99.90;;;;;;5116061;28;20127;-66
2022/05/29 03:22:55;;;;;;;12.10;3.60;;;9.30;99.90;;;;;;5034351;28;20053;-66
2022/05/29 03:25:34;;;;;;;10.20;4.03;;;9.30;99.90;;;;;;5116401;28;20051;-65
2022/05/29 03:28:02;;;;;;;10.98;3.72;;;9.30;99.90;;;;;;5123867;27;20531;-65
2022/05/29 03:30:35;;;;;;;9.15;3.53;;;9.30;99.90;;;;;;5149050;27;20061;-65
2022/05/29 03:33:02;;;;;;;;;;;9.30;99.90;;;;;;5148716;27;20055;-66
2022/05/29 03:35:31;;;;;;;8.73;3.60;;;9.30;99.90;;;;;;5112948;28;20015;-66
2022/05/29 03:37:57;;;;;;;9.55;3.55;;;9.30;99.90;;;;;;5112902;28;20047;-66
2022/05/29 03:40:25;;;;;;;9.73;3.42;;;9.30;99.90;;;;;;5099270;28;20036;-65
2022/05/29 03:42:51;;;;;;;7.15;3.15;;;9.30;99.90;;;;;;5091894;28;20071;-65
2022/05/29 03:45:17;;;;;;;11.75;3.03;;;9.30;99.90;;;;;;5090615;28;20738;-66
2022/05/29 03:47:42;;;;;;;7.03;2.92;;;9.30;99.90;;;;;;5081727;28;20462;-66
2022/05/29 03:50:12;;;;;;;9.20;2.97;;;9.40;99.90;;;;;;5115163;28;20407;-66
2022/05/29 03:52:38;;;;;;;11.18;3.80;;;9.40;99.90;;;;;;5093327;28;20119;-66
2022/05/29 03:55:04;;;;;;;10.27;3.25;;;9.50;99.90;;;;;;5096456;28;20127;-66
2022/05/29 03:57:30;;;;;;;12.60;3.33;;;9.40;99.90;;;;;;5113731;28;20093;-66
2022/05/29 03:59:56;;;;;;;8.82;2.97;;;9.50;99.90;;;;;;5115132;28;20075;-66
2022/05/29 04:02:21;;;;;;;8.00;3.50;;;9.50;99.90;;;;;;5112038;28;20058;-65
2022/05/29 04:04:47;;;;;;;10.07;2.90;;;9.50;99.90;;;;;;5111169;28;20063;-66
2022/05/29 04:07:12;;;;;;;9.88;2.75;;;9.50;99.90;;;;;;5118251;27;20562;-65
2022/05/29 04:12:22;;;;;;;7.93;2.80;;;9.50;99.90;;;;;;5113134;28;20051;-66
2022/05/29 04:14:48;;;;;;;11.20;2.65;;;9.50;99.90;;;;;;5114508;28;20051;-65
2022/05/29 04:17:18;;;;;;;10.65;2.70;;;9.60;99.90;;;;;;5109294;28;20127;-65
2022/05/29 04:19:47;;;;;;;7.65;2.63;;;9.60;99.90;;;;;;5093409;28;20408;-65
2022/05/29 04:22:16;;;;;;;9.73;2.88;;;9.60;99.90;;;;;;5108742;28;20083;-66
2022/05/29 04:24:41;;;;;;;6.43;2.30;;;9.70;99.90;;;;;;5108431;28;20402;-66
2022/05/29 04:27:09;;;;;;;12.27;3.63;;;9.80;99.90;;;;;;5145390;27;20048;-66
2022/05/29 04:29:34;;;;;;;11.98;2.70;;;9.80;99.90;;;;;;5114851;28;20048;-66
2022/05/29 04:34:44;;;;;;;12.73;3.15;;;9.80;99.90;;;;;;5114541;28;20048;-65
2022/05/29 04:37:10;;;;;;;7.43;2.70;;;9.90;99.90;;;;;;5106996;28;20059;-65
2022/05/29 04:39:36;;;;;;;7.38;2.72;;;9.90;99.90;;;;;;5089607;28;20048;-65
2022/05/29 04:42:03;;;;;;;8.65;2.67;;;9.90;99.90;;;;;;5106260;28;20060;-65
2022/05/29 04:44:31;;;;;;;9.40;3.42;;;9.90;99.90;;;;;;5073853;28;20056;-66
2022/05/29 04:47:00;;;;;;;10.23;3.15;;;9.90;99.90;;;;;;5087445;28;20048;-66
2022/05/29 04:49:26;;;;;;;8.82;2.95;;;9.90;99.90;;;;;;5093961;28;20552;-65
2022/05/29 04:51:52;;;;;;;10.25;2.63;;;9.90;99.90;;;;;;5135033;27;20372;-65
2022/05/29 04:54:18;;;;;;;7.07;2.45;;;9.90;99.90;;;;;;5114188;28;20062;-66
2022/05/29 04:56:47;;;;;;;7.30;2.50;;;10.00;99.90;;;;;;5112214;28;20055;-64
2022/05/29 04:59:12;;;;;;;9.10;3.00;;;10.00;99.90;;;;;;5114287;28;20049;-65
2022/05/29 05:01:38;;;;;;;6.10;2.50;;;10.00;99.90;;;;;;5113481;28;20122;-66
2022/05/29 05:04:04;;;;;;;14.55;3.22;;;10.00;99.90;;;;;;5110319;28;20054;-66
2022/05/29 05:06:30;;;;;;;9.38;2.97;;;10.00;99.90;;;;;;5105744;28;20043;-65
2022/05/29 05:08:56;;;;;;;11.13;3.03;;;10.00;99.90;;;;;;5112573;28;20073;-66
2022/05/29 05:11:21;;;;;;;6.85;2.17;;;10.10;99.90;;;;;;5113703;28;20056;-66
2022/05/29 05:13:47;;;;;;;6.75;2.67;;;10.20;99.90;;;;;;5113772;28;20060;-66
2022/05/29 05:16:12;;;;;;;9.27;3.30;;;10.20;99.90;;;;;;5112964;28;20091;-66
2022/05/29 05:18:39;;;;;;;10.05;2.85;;;10.20;99.90;;;;;;5111567;28;20048;-65
2022/05/29 05:21:06;;;;;;;10.25;2.28;;;10.10;99.90;;;;;;5104039;28;20050;-66
2022/05/29 05:23:32;;;;;;;8.05;2.75;;;10.10;99.90;;;;;;5144712;27;20048;-66
2022/05/29 05:25:58;;;;;;;9.00;2.53;;;10.10;99.90;;;;;;5107076;28;20053;-67
2022/05/29 05:28:24;;;;;;;6.43;2.58;;;10.10;99.90;;;;;;5146462;27;20044;-66
2022/05/29 05:30:50;;;;;;;7.25;2.55;;;10.00;99.90;;;;;;5109893;28;20048;-66
2022/05/29 05:33:15;;;;;;;7.80;2.20;;;9.90;99.90;;;;;;5108548;28;20058;-66
2022/05/29 05:35:41;;;;;;;10.88;2.55;;;9.90;99.90;;;;;;5109540;28;20135;-64
2022/05/29 05:38:07;;;;;;;8.15;2.38;;;9.90;99.90;;;;;;5099432;28;20498;-65
2022/05/29 05:40:33;;;;;;;11.15;2.33;;;9.90;99.90;;;;;;5136185;27;20484;-64
2022/05/29 05:42:58;;;;;;;8.93;2.00;;;9.90;99.90;;;;;;5077721;28;20097;-64
2022/05/29 05:45:24;;;;;;;12.25;2.50;;;9.90;99.90;;;;;;5088874;28;20456;-64
2022/05/29 05:47:49;;;;;;;7.25;2.22;;;9.90;99.90;;;;;;5128531;27;20198;-65
2022/05/29 05:50:15;;;;;;;6.63;2.35;;;10.00;99.90;;;;;;5089347;28;20062;-65
2022/05/29 05:52:42;;;;;;;7.95;2.58;;;10.10;99.90;;;;;;5086125;28;20054;-64
2022/05/29 05:55:11;;;;;;;9.65;2.20;;;10.20;99.90;;;;;;5074668;28;20535;-64
2022/05/29 05:57:41;;;;;;;9.13;2.42;;;10.40;99.90;;;;;;5088420;28;20059;-65
2022/05/29 06:00:11;;;;;;;9.40;2.55;;;10.50;99.90;;;;;;5084256;28;20044;-64
2022/05/29 06:02:42;;;;;;;8.77;2.28;;;10.60;99.90;;;;;;5093401;28;20083;-64
2022/05/29 06:05:12;;;;;;;8.18;2.70;;;10.70;99.90;;;;;;5102593;28;20059;-65
2022/05/29 06:07:38;;;;;;;8.75;2.28;;;10.90;99.90;;;;;;5088035;28;20048;-64
2022/05/29 06:10:05;;;;;;;9.32;2.42;;;11.10;99.90;;;;;;5094469;28;20503;-64
2022/05/29 06:12:31;;;;;;;5.22;2.38;;;11.20;99.90;;;;;;5091752;28;20523;-64
2022/05/29 06:14:57;;;;;;;9.98;2.50;;;11.40;99.90;;;;;;5098498;28;20125;-64
2022/05/29 06:17:23;;;;;;;6.85;2.33;;;11.30;99.90;;;;;;5145659;27;20051;-64
2022/05/29 06:19:49;;;;;;;6.78;2.55;;;11.20;99.90;;;;;;5145907;27;20070;-65
2022/05/29 06:22:14;;;;;;;7.75;2.40;;;11.10;99.90;;;;;;5113863;28;20048;-64
2022/05/29 06:24:40;;;;;;;8.27;2.78;;;11.10;99.90;;;;;;5107619;28;20134;-64
2022/05/29 06:27:05;;;;;;;9.90;3.42;;;11.00;99.90;;;;;;5131251;27;20488;-64
2022/05/29 06:29:32;;;;;;;9.35;2.65;;;11.00;99.90;;;;;;5092418;28;20136;-64
2022/05/29 06:32:03;;;;;;;5.90;2.42;;;11.00;99.90;;;;;;5101293;28;20043;-65
2022/05/29 06:34:29;;;;;;;5.72;1.92;;;11.00;99.90;;;;;;5138379;27;20126;-64
2022/05/29 06:36:54;;;;;;;11.48;2.67;;;11.10;99.90;;;;;;5091114;28;20109;-64
2022/05/29 06:39:22;;;;;;;11.45;2.78;;;11.10;99.90;;;;;;5089707;28;20552;-64
2022/05/29 06:41:48;;;;;;;11.15;3.55;;;11.20;99.90;;;;;;5106910;28;20054;-64
2022/05/29 06:44:13;;;;;;;9.10;2.38;;;11.30;99.90;;;;;;5091716;28;20052;-64
2022/05/29 06:46:39;;;;;;;10.55;2.38;;;11.30;99.90;;;;;;5092140;28;20048;-64
2022/05/29 06:49:05;;;;;;;10.77;2.55;;;11.20;99.90;;;;;;5091863;28;20051;-64
2022/05/29 06:51:30;;;;;;;11.13;2.45;;;11.10;99.90;;;;;;5097635;28;20124;-66
2022/05/29 06:53:56;;;;;;;12.30;2.58;;;11.10;99.90;;;;;;5110833;28;20051;-64
2022/05/29 06:56:23;;;;;;;10.55;2.53;;;11.00;99.90;;;;;;5111431;28;20040;-65
2022/05/29 06:58:48;;;;;;;9.95;2.33;;;11.00;99.90;;;;;;5131358;27;20059;-65
2022/05/29 07:06:59;;;;;;;9.07;2.45;;;11.00;99.90;;;;;;5093210;28;20048;-65
2022/05/29 07:09:26;;;;;;;7.50;2.00;;;10.90;99.90;;;;;;5094141;28;20590;-65
2022/05/29 07:11:59;;;;;;;8.20;2.20;;;10.90;99.90;;;;;;5099541;28;20048;-65
2022/05/29 07:14:25;;;;;;;11.73;2.35;;;10.90;99.90;;;;;;5147788;27;20391;-65
2022/05/29 07:16:50;;;;;;;7.57;2.13;;;10.80;99.90;;;;;;5112697;28;20047;-65
2022/05/29 07:19:20;;;;;;;8.20;2.22;;;10.80;99.90;;;;;;5093864;28;20217;-65
2022/05/29 07:21:45;;;;;;;10.35;2.42;;;10.80;99.90;;;;;;5127939;27;20119;-64
2022/05/29 07:24:11;;;;;;;7.15;2.55;;;10.80;99.90;;;;;;5092703;28;20575;-65
2022/05/29 07:26:37;;;;;;;8.77;2.40;;;10.80;99.90;;;;;;5093421;28;20074;-65
2022/05/29 07:29:03;;;;;;;12.13;3.05;;;10.80;99.90;;;;;;5115929;28;20052;-64
2022/05/29 07:31:29;;;;;;;12.80;2.45;;;10.80;99.90;;;;;;5115143;28;20134;-63
2022/05/29 07:33:55;;;;;;;7.65;2.15;;;10.90;99.90;;;;;;5148667;27;20062;-64
2022/05/29 07:36:24;;;;;;;10.20;2.15;;;10.90;99.90;;;;;;5109368;28;20068;-64
2022/05/29 07:38:50;;;;;;;10.30;2.05;;;11.00;99.90;;;;;;5091374;28;20491;-65
2022/05/29 07:44:00;;;;;;;14.20;2.83;;;11.00;99.90;;;;;;5095005;28;20055;-65
2022/05/29 07:46:25;;;;;;;12.75;2.80;;;11.40;99.90;;;;;;5094626;28;20051;-64
2022/05/29 07:48:52;;;;;;;11.60;2.58;;;11.20;99.90;;;;;;5093887;28;20052;-64
2022/05/29 07:51:18;;;;;;;12.68;2.53;;;11.30;99.90;;;;;;5093502;28;20048;-63
2022/05/29 07:53:44;;;;;;;11.10;2.50;;;11.50;99.90;;;;;;5095210;28;20097;-64
2022/05/29 07:56:10;;;;;;;7.13;1.73;;;11.50;99.90;;;;;;5094634;28;20068;-64
2022/05/29 07:58:38;;;;;;;10.43;2.10;;;11.70;99.90;;;;;;5093428;28;20082;-64
2022/05/29 08:01:04;;;;;;;7.68;1.80;;;11.80;99.90;;;;;;5093232;28;20052;-65
2022/05/29 08:03:29;;;;;;;9.80;2.03;;;11.90;99.90;;;;;;5093781;28;20127;-64
2022/05/29 08:05:56;;;;;;;9.15;2.20;;;11.90;99.90;;;;;;5127638;27;20530;-64
2022/05/29 08:08:22;;;;;;;9.55;2.58;;;11.90;99.90;;;;;;5127528;27;20491;-65
2022/05/29 08:10:48;;;;;;;7.60;2.05;;;11.90;99.90;;;;;;5093537;28;20036;-65
2022/05/29 08:13:14;;;;;;;9.18;1.83;;;12.00;99.90;;;;;;5127038;27;20091;-63
2022/05/29 08:15:41;;;;;;;7.88;1.75;;;12.00;99.90;;;;;;5093405;28;20055;-65
2022/05/29 08:18:08;;;;;;;5.57;1.73;;;12.00;99.90;;;;;;5091729;28;20048;-64
2022/05/29 08:20:36;;;;;;;6.47;1.60;;;12.00;99.90;;;;;;5092153;28;20117;-64
2022/05/29 08:23:03;;;;;;;8.13;1.70;;;11.90;99.90;;;;;;5092378;28;20047;-64
2022/05/29 08:30:57;;;;;;;8.90;2.17;;;12.00;99.90;;;;;;5092636;28;20495;-64
2022/05/29 08:33:28;;;;;;;8.13;1.83;;;12.00;99.90;;;;;;5093688;28;20048;-64
2022/05/29 08:36:08;;;;;;;7.32;1.45;;;11.90;99.90;;;;;;5109615;28;20087;-64
2022/05/29 08:38:37;;;;;;;4.97;1.48;;;11.90;99.90;;;;;;5109832;28;20036;-64
2022/05/29 08:41:09;;;;;;;8.73;1.60;;;11.90;99.90;;;;;;5093579;28;20059;-64
2022/05/29 08:43:42;;;;;;;6.00;1.70;;;11.80;99.90;;;;;;5109455;28;20047;-64
2022/05/29 08:46:19;;;;;;;5.22;1.15;;;11.80;99.90;;;;;;5093038;28;20052;-64
2022/05/29 08:48:48;;;;;;;6.60;1.73;;;11.90;99.90;;;;;;5092389;28;20169;-64
2022/05/29 08:51:37;;;;;;;4.35;1.10;;;11.90;99.90;;;;;;5092260;28;20134;-64
2022/05/29 08:54:10;;;;;;;4.60;1.50;;;12.00;99.90;;;;;;5093925;28;20059;-64
2022/05/29 08:56:45;;;;;;;3.78;1.23;;;12.10;99.90;;;;;;5109250;28;20052;-64
2022/05/29 08:59:43;;;;;;;5.20;1.38;;;12.20;99.90;;;;;;5109443;28;20063;-66
2022/05/29 09:02:37;;;;;;;4.30;1.20;;;12.30;99.90;;;;;;5091732;28;20056;-64
2022/05/29 09:05:09;;;;;;;3.88;1.27;;;12.30;99.90;;;;;;5093031;28;20108;-63
2022/05/29 09:07:38;;;;;;;4.85;1.92;;;12.20;99.90;;;;;;5122123;27;20079;-64
2022/05/29 09:13:52;;;;;;;4.68;1.20;;;12.10;99.90;;;;;;5106143;28;20056;-64
2022/05/29 09:16:24;;;;;;;4.40;1.00;;;12.00;99.90;;;;;;5108501;28;20051;-64
2022/05/29 09:19:11;;;;;;;5.78;1.88;;;12.00;99.90;;;;;;5104717;28;20177;-64
2022/05/29 09:21:58;;;;;;;4.45;1.17;;;11.90;99.90;;;;;;5096736;28;20133;-65
2022/05/29 09:24:36;;;;;;;6.32;1.15;;;11.90;99.90;;;;;;5091795;28;20052;-64
2022/05/29 09:27:02;;;;;;;6.22;1.65;;;11.90;99.90;;;;;;5092961;28;20066;-66
2022/05/29 09:29:28;;;;;;;7.93;1.65;;;11.90;99.90;;;;;;5093285;28;20052;-65
2022/05/29 09:31:54;;;;;;;7.20;1.38;;;12.00;99.90;;;;;;5092241;28;20201;-64
2022/05/29 09:34:19;;;;;;;6.10;1.38;;;12.10;99.90;;;;;;5090515;28;20055;-64
2022/05/29 09:37:18;;;;;;;5.07;1.17;;;12.10;99.90;;;;;;5103470;28;20048;-65
2022/05/29 09:44:14;;;;;;;5.45;1.55;;;12.40;99.90;;;;;;5104909;28;20104;-65
2022/05/29 09:50:22;;;;;;;4.63;1.20;;;12.70;99.90;;;;;;5112198;28;20048;-65
2022/05/29 09:52:48;;;;;;;3.80;1.05;;;13.00;99.90;;;;;;5096781;28;20071;-65
2022/05/29 09:55:29;;;;;;;4.88;1.23;;;13.10;99.90;;;;;;5074641;28;20041;-64
2022/05/29 09:57:56;;;;;;;6.28;1.40;;;13.00;99.90;;;;;;5102568;28;20112;-65
2022/05/29 10:00:35;;;;;;;5.60;1.67;;;12.80;99.90;;;;;;5112617;28;20047;-65
2022/05/29 10:03:02;;;;;;;2.70;1.02;;;12.70;99.90;;;;;;5095833;28;20381;-65
2022/05/29 10:05:34;;;;;;;4.25;1.00;;;12.60;99.90;;;;;;5145960;27;20083;-65
2022/05/29 10:08:34;;;;;;;5.07;1.23;;;12.60;99.90;;;;;;5113029;28;20043;-65
2022/05/29 10:11:26;;;;;;;5.78;1.30;;;12.80;99.90;;;;;;5102054;28;20084;-65
2022/05/29 10:13:52;;;;;;;4.95;1.27;;;12.90;99.90;;;;;;5059613;28;20065;-65
2022/05/29 10:16:36;;;;;;;4.80;1.13;;;13.00;99.90;;;;;;5128631;27;20044;-65
2022/05/29 10:19:05;;;;;;;4.60;1.20;;;13.10;99.90;;;;;;5141136;27;20052;-65
2022/05/29 10:21:36;;;;;;;5.10;1.25;;;13.00;99.90;;;;;;5146585;27;20394;-65
2022/05/29 10:24:22;;;;;;;4.93;1.30;;;13.00;99.90;;;;;;5129184;28;20055;-65
2022/05/29 10:31:01;;;;;;;5.25;1.25;;;12.90;99.90;;;;;;5086214;28;20503;-65
2022/05/29 10:33:30;;;;;;;5.20;1.50;;;13.00;99.90;;;;;;5089337;28;20040;-65
2022/05/29 10:36:16;;;;;;;4.32;1.23;;;12.80;99.90;;;;;;5073884;28;20040;-65
2022/05/29 10:38:42;;;;;;;5.70;1.40;;;12.60;99.90;;;;;;5093120;28;20268;-65
2022/05/29 10:41:10;;;;;;;5.05;1.33;;;12.50;99.90;;;;;;5095838;28;20372;-65
2022/05/29 10:43:41;;;;;;;4.45;1.10;;;12.40;99.90;;;;;;5130673;27;20040;-65
2022/05/29 10:46:19;;;;;;;5.77;1.67;;;12.40;99.90;;;;;;5093628;28;20169;-65
2022/05/29 10:53:09;;;;;;;4.07;1.33;;;12.40;99.90;;;;;;5107461;28;20038;-65
2022/05/29 10:59:47;;;;;;;2.67;0.82;;;12.80;99.90;;;;;;5105742;28;20046;-64
2022/05/29 11:06:00;;;;;;;3.67;1.10;;;13.40;99.90;;;;;;5125599;27;20123;-65
2022/05/29 11:08:49;;;;;;;3.22;0.93;;;13.70;99.90;;;;;;5067675;28;20404;-65
2022/05/29 11:11:19;;;;;;;5.22;1.02;;;14.00;99.90;;;;;;5100544;28;20059;-65
2022/05/29 11:17:38;;;;;;;1.80;0.88;;;14.20;99.90;;;;;;5084309;28;20040;-65
2022/05/29 11:20:35;;;;;;;3.88;1.00;;;13.30;99.90;;;;;;5052961;28;20489;-64
2022/05/29 11:23:49;;;;;;;7.82;1.20;;;12.90;99.90;;;;;;5034736;28;20048;-64
2022/05/29 11:26:30;;;;;;;2.88;1.13;;;13.90;99.90;;;;;;5048437;28;20179;-65
2022/05/29 11:29:24;;;;;;;4.00;1.20;;;12.50;99.90;;;;;;5014129;28;20096;-65
2022/05/29 11:35:19;;;;;;;3.03;1.00;;;12.70;99.90;;;;;;5011353;28;20042;-65
2022/05/29 11:38:06;;;;;;;4.43;1.40;;;12.70;99.90;;;;;;4979751;28;20161;-64
2022/05/29 11:40:36;;;;;;;2.55;0.90;;;12.70;99.90;;;;;;4996748;28;20060;-65
2022/05/29 11:43:20;;;;;;;2.90;1.10;;;12.80;99.90;;;;;;4995365;28;20450;-64
2022/05/29 11:52:06;;;;;;;2.30;1.08;;;13.60;99.90;;;;;;5032992;28;20047;-64
2022/05/29 11:54:40;;;;;;;3.88;0.95;;;13.90;99.90;;;;;;5019267;28;20048;-65
2022/05/29 11:57:19;;;;;;;3.67;0.95;;;13.90;99.90;;;;;;5035381;28;20049;-65
2022/05/29 12:00:04;;;;;;;3.38;0.90;;;14.20;99.90;;;;;;5035633;28;20045;-65
2022/05/29 12:02:47;;;;;;;3.65;0.80;;;14.20;99.90;;;;;;5017786;28;20545;-65
2022/05/29 12:05:40;;;;;;;3.60;0.90;;;13.80;99.90;;;;;;5048189;28;20036;-64
2022/05/29 12:08:21;;;;;;;2.28;0.80;;;13.80;99.90;;;;;;5069638;28;20114;-65
2022/05/29 12:10:56;;;;;;;8.25;1.35;;;13.30;99.90;;;;;;5069785;28;20485;-65
2022/05/29 12:13:26;;;;;;;2.65;1.20;;;13.20;99.90;;;;;;5066221;28;20132;-65
2022/05/29 12:16:08;;;;;;;5.95;1.13;;;13.10;99.90;;;;;;5075353;28;20088;-65
2022/05/29 12:18:42;;;;;;;5.20;1.40;;;12.90;99.90;;;;;;5093111;28;20506;-64
2022/05/29 12:21:11;;;;;;;8.10;1.73;;;12.80;99.90;;;;;;5094196;28;20074;-65
2022/05/29 12:23:43;;;;;;;7.88;1.67;;;12.60;99.90;;;;;;5104399;27;20052;-65
2022/05/29 12:26:28;;;;;;;6.05;1.00;;;12.80;99.90;;;;;;5094072;28;20497;-65
2022/05/29 12:29:05;;;;;;;5.18;1.50;;;12.70;99.90;;;;;;5128765;27;20052;-65
2022/05/29 12:31:44;;;;;;;5.72;1.30;;;12.90;99.90;;;;;;5130198;27;20451;-65
2022/05/29 12:34:22;;;;;;;4.55;1.13;;;13.00;99.90;;;;;;5146122;27;20097;-65
2022/05/29 12:37:02;;;;;;;5.55;1.40;;;14.00;99.90;;;;;;5122053;27;20052;-64
2022/05/29 12:39:43;;;;;;;6.45;1.70;;;13.40;99.90;;;;;;5120918;27;20076;-65
2022/05/29 12:42:40;;;;;;;5.97;1.50;;;13.70;99.90;;;;;;5100832;28;20100;-65
2022/05/29 12:45:39;;;;;;;3.65;1.25;;;14.10;99.90;;;;;;5147401;27;20116;-64
2022/05/29 12:48:19;;;;;;;4.82;1.20;;;14.20;99.90;;;;;;5129273;27;20122;-65
2022/05/29 12:51:09;;;;;;;5.53;1.33;;;14.60;99.90;;;;;;5130321;27;20383;-65
2022/05/29 12:53:44;;;;;;;8.25;1.80;;;14.40;99.90;;;;;;5105514;28;20378;-65
2022/05/29 12:56:42;;;;;;;3.70;1.10;;;14.40;99.90;;;;;;5094054;28;20387;-65
2022/05/29 12:59:48;;;;;;;5.47;1.40;;;14.20;99.90;;;;;;5126438;27;20063;-65
2022/05/29 13:02:25;;;;;;;3.35;1.30;;;13.90;99.90;;;;;;5108222;28;20057;-64
2022/05/29 13:05:10;;;;;;;4.45;1.33;;;14.10;99.90;;;;;;5109210;28;20109;-65
2022/05/29 13:07:59;;;;;;;7.55;2.58;;;13.50;99.90;;;;;;5108486;28;20048;-64
2022/05/29 13:10:34;;;;;;;6.95;1.52;;;13.40;99.90;;;;;;5074512;28;20052;-64
2022/05/29 13:13:19;;;;;;;8.00;1.35;;;13.40;99.90;;;;;;5127617;27;20058;-64
2022/05/29 13:15:46;;;;;;;9.20;1.90;;;13.40;99.90;;;;;;5108490;28;20055;-64
2022/05/29 13:21:14;;;;;;;6.50;1.70;;;13.20;99.90;;;;;;5107805;28;20480;-65
2022/05/29 13:23:58;;;;;;;7.50;1.58;;;13.10;99.90;;;;;;5091424;28;20107;-64
2022/05/29 13:26:33;;;;;;;5.28;1.50;;;13.00;99.90;;;;;;5108822;28;20155;-64
2022/05/29 13:29:03;;;;;;;4.45;1.17;;;13.20;99.90;;;;;;5076930;28;20071;-65
2022/05/29 13:31:32;;;;;;;6.10;1.83;;;13.30;99.90;;;;;;5115353;27;20213;-65
2022/05/29 13:34:27;;;;;;;3.03;1.08;;;13.40;99.90;;;;;;5118924;27;20051;-64
2022/05/29 13:37:00;;;;;;;5.45;1.50;;;13.50;99.90;;;;;;5088835;28;20500;-65
2022/05/29 13:39:29;;;;;;;8.23;1.70;;;13.50;99.90;;;;;;5088190;28;20045;-64
2022/05/29 13:41:59;;;;;;;4.95;1.73;;;13.60;99.90;;;;;;5088589;28;20032;-64
2022/05/29 13:44:35;;;;;;;6.28;1.40;;;14.00;99.90;;;;;;5091762;28;20404;-65
2022/05/29 13:47:19;;;;;;;6.05;1.48;;;13.90;99.90;;;;;;5107974;28;20044;-65
2022/05/29 13:50:14;;;;;;;4.45;1.42;;;13.90;99.90;;;;;;5108697;28;20488;-65
2022/05/29 13:52:54;;;;;;;3.75;1.30;;;14.00;99.90;;;;;;5091640;28;20396;-64
2022/05/29 13:55:27;;;;;;;6.70;1.50;;;13.90;99.90;;;;;;5107180;28;20071;-65
2022/05/29 14:03:58;;;;;;;5.10;1.40;;;13.50;99.90;;;;;;5092192;28;20498;-64
2022/05/29 14:06:39;;;;;;;4.35;1.08;;;13.40;99.90;;;;;;5087753;28;20160;-65
2022/05/29 14:09:13;;;;;;;7.65;1.42;;;13.40;99.90;;;;;;5088359;28;20071;-64
2022/05/29 14:11:44;;;;;;;4.53;1.50;;;13.30;99.90;;;;;;5090947;28;20047;-65
2022/05/29 14:14:33;;;;;;;7.85;1.52;;;13.50;99.90;;;;;;5078838;28;20101;-65
2022/05/29 14:17:22;;;;;;;4.53;1.20;;;13.50;99.90;;;;;;5111166;28;20044;-64
2022/05/29 14:19:52;;;;;;;9.80;7.03;;;13.70;99.90;;;;;;5094954;28;20503;-65
2022/05/29 14:22:46;;;;;;;5.50;1.25;;;13.80;99.90;;;;;;5094436;28;20044;-65
2022/05/29 14:25:37;;;;;;;8.30;1.60;;;13.90;99.90;;;;;;5095393;28;20066;-65
2022/05/29 14:28:31;;;;;;;6.80;1.65;;;13.90;99.90;;;;;;5096567;28;20407;-65